sensor_id;sensor_type;location;lat;lon;timestamp;pressure;altitude;pressure_sealevel;temperature;humidity
61109;BME280;46995;55.740;37.402;2023-02-12T00:01:23;98096.28;;;-0.30;92.78
61109;BME280;46995;55.740;37.402;2023-02-12T00:03:50;98098.84;;;-0.43;92.47
61109;BME280;46995;55.740;37.402;2023-02-12T00:06:16;98110.69;;;-0.39;92.39
61109;BME280;46995;55.740;37.402;2023-02-12T00:08:42;98109.09;;;-0.54;91.93
61109;BME280;46995;55.740;37.402;2023-02-12T00:11:13;98115.09;;;-0.54;92.10
61109;BME280;46995;55.740;37.402;2023-02-12T00:13:39;98125.84;;;-0.60;91.73
61109;BME280;46995;55.740;37.402;2023-02-12T00:16:11;98127.69;;;-0.62;91.93
61109;BME280;46995;55.740;37.402;2023-02-12T00:18:37;98134.94;;;-0.67;91.65
61109;BME280;46995;55.740;37.402;2023-02-12T00:21:04;98134.91;;;-0.79;91.77
61109;BME280;46995;55.740;37.402;2023-02-12T00:23:30;98157.28;;;-0.78;91.65
61109;BME280;46995;55.740;37.402;2023-02-12T00:25:56;98163.50;;;-0.81;91.83
61109;BME280;46995;55.740;37.402;2023-02-12T00:28:22;98174.88;;;-0.83;92.30
61109;BME280;46995;55.740;37.402;2023-02-12T00:30:48;98169.13;;;-0.89;91.97
61109;BME280;46995;55.740;37.402;2023-02-12T00:33:14;98184.69;;;-1.03;92.11
61109;BME280;46995;55.740;37.402;2023-02-12T00:35:40;98205.25;;;-1.00;91.86
61109;BME280;46995;55.740;37.402;2023-02-12T00:38:06;98193.75;;;-1.10;91.99
61109;BME280;46995;55.740;37.402;2023-02-12T00:40:32;98207.66;;;-1.11;92.27
61109;BME280;46995;55.740;37.402;2023-02-12T00:42:58;98189.50;;;-1.25;93.09
61109;BME280;46995;55.740;37.402;2023-02-12T00:45:24;98209.31;;;-1.24;93.08
61109;BME280;46995;55.740;37.402;2023-02-12T00:47:50;98226.59;;;-1.24;93.47
61109;BME280;46995;55.740;37.402;2023-02-12T00:50:15;98236.13;;;-1.25;93.67
61109;BME280;46995;55.740;37.402;2023-02-12T00:52:41;98241.28;;;-1.25;94.01
61109;BME280;46995;55.740;37.402;2023-02-12T00:55:07;98269.75;;;-1.39;93.51
61109;BME280;46995;55.740;37.402;2023-02-12T00:57:33;98249.75;;;-1.51;93.85
61109;BME280;46995;55.740;37.402;2023-02-12T00:59:59;98239.44;;;-1.67;93.70
61109;BME280;46995;55.740;37.402;2023-02-12T01:02:25;98274.69;;;-1.64;93.77
61109;BME280;46995;55.740;37.402;2023-02-12T01:04:51;98293.19;;;-1.56;94.25
61109;BME280;46995;55.740;37.402;2023-02-12T01:07:17;98279.44;;;-1.73;94.18
61109;BME280;46995;55.740;37.402;2023-02-12T01:09:43;98289.22;;;-1.78;94.03
61109;BME280;46995;55.740;37.402;2023-02-12T01:12:09;98287.91;;;-1.85;94.17
61109;BME280;46995;55.740;37.402;2023-02-12T01:14:35;98327.81;;;-1.73;94.22
61109;BME280;46995;55.740;37.402;2023-02-12T01:17:02;98314.53;;;-1.83;94.24
61109;BME280;46995;55.740;37.402;2023-02-12T01:19:28;98316.13;;;-1.96;93.89
61109;BME280;46995;55.740;37.402;2023-02-12T01:21:54;98352.03;;;-1.90;93.59
61109;BME280;46995;55.740;37.402;2023-02-12T01:24:19;98327.00;;;-2.05;93.59
61109;BME280;46995;55.740;37.402;2023-02-12T01:26:45;98334.31;;;-2.13;93.44
61109;BME280;46995;55.740;37.402;2023-02-12T01:29:11;98363.28;;;-2.06;93.85
61109;BME280;46995;55.740;37.402;2023-02-12T01:31:37;98329.81;;;-2.25;93.29
61109;BME280;46995;55.740;37.402;2023-02-12T01:34:05;98361.44;;;-2.20;92.96
61109;BME280;46995;55.740;37.402;2023-02-12T01:36:32;98372.84;;;-2.24;93.40
61109;BME280;46995;55.740;37.402;2023-02-12T01:38:58;98387.38;;;-2.22;93.47
61109;BME280;46995;55.740;37.402;2023-02-12T01:41:31;98382.84;;;-2.18;93.26
61109;BME280;46995;55.740;37.402;2023-02-12T01:44:16;98397.78;;;-2.23;92.93
61109;BME280;46995;55.740;37.402;2023-02-12T01:46:47;98391.66;;;-2.38;93.42
61109;BME280;46995;55.740;37.402;2023-02-12T01:49:38;98418.03;;;-2.31;93.71
61109;BME280;46995;55.740;37.402;2023-02-12T01:52:20;98437.06;;;-2.32;93.95
61109;BME280;46995;55.740;37.402;2023-02-12T01:54:51;98423.66;;;-2.40;93.35
61109;BME280;46995;55.740;37.402;2023-02-12T01:57:18;98430.00;;;-2.46;94.08
61109;BME280;46995;55.740;37.402;2023-02-12T01:59:47;98454.31;;;-2.33;94.01
61109;BME280;46995;55.740;37.402;2023-02-12T02:02:13;98440.03;;;-2.40;94.19
61109;BME280;46995;55.740;37.402;2023-02-12T02:04:43;98452.03;;;-2.39;94.09
61109;BME280;46995;55.740;37.402;2023-02-12T02:07:11;98451.38;;;-2.42;93.60
61109;BME280;46995;55.740;37.402;2023-02-12T02:09:38;98466.88;;;-2.42;93.74
61109;BME280;46995;55.740;37.402;2023-02-12T02:12:05;98474.78;;;-2.45;93.09
61109;BME280;46995;55.740;37.402;2023-02-12T02:14:52;98474.16;;;-2.50;93.78
61109;BME280;46995;55.740;37.402;2023-02-12T02:28:18;98511.88;;;-2.64;93.35
61109;BME280;46995;55.740;37.402;2023-02-12T02:31:08;98518.78;;;-2.64;93.37
61109;BME280;46995;55.740;37.402;2023-02-12T02:33:58;98515.97;;;-2.77;93.99
61109;BME280;46995;55.740;37.402;2023-02-12T02:36:46;98555.66;;;-2.61;93.56
61109;BME280;46995;55.740;37.402;2023-02-12T02:42:03;98558.22;;;-2.61;93.95
61109;BME280;46995;55.740;37.402;2023-02-12T02:44:47;98559.31;;;-2.65;94.14
61109;BME280;46995;55.740;37.402;2023-02-12T02:47:16;98564.94;;;-2.57;94.03
61109;BME280;46995;55.740;37.402;2023-02-12T02:49:52;98577.72;;;-2.53;93.72
61109;BME280;46995;55.740;37.402;2023-02-12T02:55:09;98584.41;;;-2.49;93.86
61109;BME280;46995;55.740;37.402;2023-02-12T02:57:43;98594.44;;;-2.43;93.50
61109;BME280;46995;55.740;37.402;2023-02-12T03:00:19;98608.28;;;-2.44;93.88
61109;BME280;46995;55.740;37.402;2023-02-12T03:02:51;98612.09;;;-2.51;93.66
61109;BME280;46995;55.740;37.402;2023-02-12T03:08:39;98613.00;;;-2.52;93.54
61109;BME280;46995;55.740;37.402;2023-02-12T03:11:04;98630.59;;;-2.61;93.08
61109;BME280;46995;55.740;37.402;2023-02-12T03:13:42;98632.78;;;-2.70;93.66
61109;BME280;46995;55.740;37.402;2023-02-12T03:16:20;98648.84;;;-2.64;93.22
61109;BME280;46995;55.740;37.402;2023-02-12T03:19:06;98647.59;;;-2.74;93.88
61109;BME280;46995;55.740;37.402;2023-02-12T03:21:47;98659.25;;;-2.84;93.43
61109;BME280;46995;55.740;37.402;2023-02-12T03:24:38;98675.66;;;-2.85;93.63
61109;BME280;46995;55.740;37.402;2023-02-12T03:29:42;98678.72;;;-2.77;94.76
61109;BME280;46995;55.740;37.402;2023-02-12T03:34:54;98697.03;;;-2.81;94.55
61109;BME280;46995;55.740;37.402;2023-02-12T03:37:42;98709.19;;;-2.83;94.63
61109;BME280;46995;55.740;37.402;2023-02-12T03:40:18;98715.47;;;-2.89;94.29
61109;BME280;46995;55.740;37.402;2023-02-12T03:42:59;98714.13;;;-2.97;93.86
61109;BME280;46995;55.740;37.402;2023-02-12T03:48:35;98717.94;;;-3.06;94.27
61109;BME280;46995;55.740;37.402;2023-02-12T03:51:26;98749.78;;;-3.06;94.22
61109;BME280;46995;55.740;37.402;2023-02-12T03:53:55;98738.28;;;-3.19;93.65
61109;BME280;46995;55.740;37.402;2023-02-12T03:56:26;98766.44;;;-3.13;94.05
61109;BME280;46995;55.740;37.402;2023-02-12T03:58:53;98731.16;;;-3.32;93.92
61109;BME280;46995;55.740;37.402;2023-02-12T04:01:18;98759.28;;;-3.26;94.12
61109;BME280;46995;55.740;37.402;2023-02-12T04:03:44;98764.50;;;-3.28;93.65
61109;BME280;46995;55.740;37.402;2023-02-12T04:06:22;98770.53;;;-3.27;93.07
61109;BME280;46995;55.740;37.402;2023-02-12T04:08:51;98772.16;;;-3.25;94.05
61109;BME280;46995;55.740;37.402;2023-02-12T04:11:32;98783.44;;;-3.27;93.83
61109;BME280;46995;55.740;37.402;2023-02-12T04:19:59;98796.88;;;-3.19;93.95
61109;BME280;46995;55.740;37.402;2023-02-12T04:28:02;98825.88;;;-3.34;93.34
61109;BME280;46995;55.740;37.402;2023-02-12T04:30:36;98837.44;;;-3.43;92.90
61109;BME280;46995;55.740;37.402;2023-02-12T04:33:07;98840.06;;;-3.45;93.49
61109;BME280;46995;55.740;37.402;2023-02-12T04:38:27;98843.69;;;-3.49;93.51
61109;BME280;46995;55.740;37.402;2023-02-12T04:40:55;98847.41;;;-3.56;93.63
61109;BME280;46995;55.740;37.402;2023-02-12T04:43:28;98860.78;;;-3.46;93.14
61109;BME280;46995;55.740;37.402;2023-02-12T04:45:56;98848.31;;;-3.57;93.16
61109;BME280;46995;55.740;37.402;2023-02-12T04:48:22;98859.34;;;-3.53;92.95
61109;BME280;46995;55.740;37.402;2023-02-12T04:50:48;98878.06;;;-3.48;92.70
61109;BME280;46995;55.740;37.402;2023-02-12T04:53:14;98888.19;;;-3.44;93.01
61109;BME280;46995;55.740;37.402;2023-02-12T04:55:40;98881.44;;;-3.46;93.40
61109;BME280;46995;55.740;37.402;2023-02-12T04:58:07;98863.91;;;-3.60;93.28
61109;BME280;46995;55.740;37.402;2023-02-12T05:00:33;98880.69;;;-3.50;92.72
61109;BME280;46995;55.740;37.402;2023-02-12T05:02:59;98902.19;;;-3.49;92.99
61109;BME280;46995;55.740;37.402;2023-02-12T05:05:25;98913.31;;;-3.47;92.81
61109;BME280;46995;55.740;37.402;2023-02-12T05:07:50;98907.41;;;-3.51;93.22
61109;BME280;46995;55.740;37.402;2023-02-12T05:10:16;98916.91;;;-3.51;93.36
61109;BME280;46995;55.740;37.402;2023-02-12T05:12:42;98927.22;;;-3.51;93.10
61109;BME280;46995;55.740;37.402;2023-02-12T05:15:08;98921.56;;;-3.61;92.95
61109;BME280;46995;55.740;37.402;2023-02-12T05:17:34;98939.47;;;-3.56;93.39
61109;BME280;46995;55.740;37.402;2023-02-12T05:20:01;98953.84;;;-3.51;93.12
61109;BME280;46995;55.740;37.402;2023-02-12T05:22:29;98973.69;;;-3.51;93.35
61109;BME280;46995;55.740;37.402;2023-02-12T05:24:55;98955.66;;;-3.53;93.21
61109;BME280;46995;55.740;37.402;2023-02-12T05:27:21;98976.94;;;-3.46;93.03
61109;BME280;46995;55.740;37.402;2023-02-12T05:29:46;98959.28;;;-3.57;93.35
61109;BME280;46995;55.740;37.402;2023-02-12T05:32:12;98977.81;;;-3.47;92.98
61109;BME280;46995;55.740;37.402;2023-02-12T05:34:38;98977.22;;;-3.54;92.29
61109;BME280;46995;55.740;37.402;2023-02-12T05:37:04;98982.66;;;-3.61;92.58
61109;BME280;46995;55.740;37.402;2023-02-12T05:39:29;98998.81;;;-3.56;92.83
61109;BME280;46995;55.740;37.402;2023-02-12T05:41:55;98983.97;;;-3.73;92.59
61109;BME280;46995;55.740;37.402;2023-02-12T05:44:21;98987.22;;;-3.68;92.51
61109;BME280;46995;55.740;37.402;2023-02-12T05:46:47;98989.78;;;-3.68;92.49
61109;BME280;46995;55.740;37.402;2023-02-12T05:49:13;99001.00;;;-3.69;92.67
61109;BME280;46995;55.740;37.402;2023-02-12T05:51:39;99000.13;;;-3.68;93.04
61109;BME280;46995;55.740;37.402;2023-02-12T05:54:06;98996.50;;;-3.64;92.12
61109;BME280;46995;55.740;37.402;2023-02-12T05:56:37;99030.19;;;-3.67;92.77
61109;BME280;46995;55.740;37.402;2023-02-12T05:59:12;99022.50;;;-3.68;92.81
61109;BME280;46995;55.740;37.402;2023-02-12T06:01:40;99011.88;;;-3.84;92.27
61109;BME280;46995;55.740;37.402;2023-02-12T06:04:09;99016.38;;;-3.89;92.40
61109;BME280;46995;55.740;37.402;2023-02-12T06:06:37;99053.50;;;-3.70;92.99
61109;BME280;46995;55.740;37.402;2023-02-12T06:09:07;99045.97;;;-3.76;92.17
61109;BME280;46995;55.740;37.402;2023-02-12T06:11:33;99052.16;;;-3.80;92.19
61109;BME280;46995;55.740;37.402;2023-02-12T06:14:03;99042.34;;;-3.94;92.52
61109;BME280;46995;55.740;37.402;2023-02-12T06:16:29;99059.03;;;-3.80;92.33
61109;BME280;46995;55.740;37.402;2023-02-12T06:18:56;99059.31;;;-3.88;92.24
61109;BME280;46995;55.740;37.402;2023-02-12T06:21:24;99066.78;;;-3.80;92.22
61109;BME280;46995;55.740;37.402;2023-02-12T06:23:52;99078.06;;;-3.83;92.15
61109;BME280;46995;55.740;37.402;2023-02-12T06:26:18;99092.56;;;-3.80;92.08
61109;BME280;46995;55.740;37.402;2023-02-12T06:28:45;99097.91;;;-3.85;92.12
61109;BME280;46995;55.740;37.402;2023-02-12T06:31:25;99099.53;;;-3.82;92.09
61109;BME280;46995;55.740;37.402;2023-02-12T06:33:54;99113.25;;;-3.82;92.60
61109;BME280;46995;55.740;37.402;2023-02-12T06:36:21;99136.41;;;-3.80;91.96
61109;BME280;46995;55.740;37.402;2023-02-12T06:38:47;99127.38;;;-3.92;91.73
61109;BME280;46995;55.740;37.402;2023-02-12T06:41:13;99120.16;;;-4.07;91.98
61109;BME280;46995;55.740;37.402;2023-02-12T06:43:39;99138.13;;;-4.04;92.38
61109;BME280;46995;55.740;37.402;2023-02-12T06:46:06;99145.88;;;-4.06;92.18
61109;BME280;46995;55.740;37.402;2023-02-12T06:48:32;99139.56;;;-4.22;91.92
61109;BME280;46995;55.740;37.402;2023-02-12T06:51:11;99155.66;;;-4.15;91.72
61109;BME280;46995;55.740;37.402;2023-02-12T06:53:37;99161.91;;;-4.22;91.48
61109;BME280;46995;55.740;37.402;2023-02-12T06:56:05;99188.91;;;-4.08;92.08
61109;BME280;46995;55.740;37.402;2023-02-12T06:58:31;99168.75;;;-4.21;91.75
61109;BME280;46995;55.740;37.402;2023-02-12T07:01:11;99192.34;;;-4.07;91.80
61109;BME280;46995;55.740;37.402;2023-02-12T07:03:39;99189.75;;;-4.07;92.04
61109;BME280;46995;55.740;37.402;2023-02-12T07:06:08;99207.03;;;-4.09;91.84
61109;BME280;46995;55.740;37.402;2023-02-12T07:08:34;99204.38;;;-4.08;91.39
61109;BME280;46995;55.740;37.402;2023-02-12T07:11:01;99204.25;;;-4.03;91.68
61109;BME280;46995;55.740;37.402;2023-02-12T07:13:27;99211.78;;;-3.97;92.39
61109;BME280;46995;55.740;37.402;2023-02-12T07:15:53;99215.28;;;-3.98;91.07
61109;BME280;46995;55.740;37.402;2023-02-12T07:18:18;99218.63;;;-3.96;92.06
61109;BME280;46995;55.740;37.402;2023-02-12T07:20:44;99214.63;;;-4.05;91.26
61109;BME280;46995;55.740;37.402;2023-02-12T07:23:11;99227.22;;;-3.96;91.72
61109;BME280;46995;55.740;37.402;2023-02-12T07:25:37;99212.47;;;-3.92;91.10
61109;BME280;46995;55.740;37.402;2023-02-12T07:28:03;99208.72;;;-4.08;91.17
61109;BME280;46995;55.740;37.402;2023-02-12T07:30:29;99205.16;;;-4.04;91.62
61109;BME280;46995;55.740;37.402;2023-02-12T07:32:54;99222.00;;;-3.94;91.98
61109;BME280;46995;55.740;37.402;2023-02-12T07:35:20;99224.47;;;-3.91;91.34
61109;BME280;46995;55.740;37.402;2023-02-12T07:37:47;99241.25;;;-3.78;92.04
61109;BME280;46995;55.740;37.402;2023-02-12T07:40:13;99233.22;;;-3.95;91.26
61109;BME280;46995;55.740;37.402;2023-02-12T07:42:39;99203.22;;;-4.24;91.31
61109;BME280;46995;55.740;37.402;2023-02-12T07:45:05;99211.06;;;-4.29;91.03
61109;BME280;46995;55.740;37.402;2023-02-12T07:47:32;99248.91;;;-4.03;91.30
61109;BME280;46995;55.740;37.402;2023-02-12T07:50:00;99271.19;;;-4.00;90.77
61109;BME280;46995;55.740;37.402;2023-02-12T07:52:28;99263.47;;;-4.00;91.55
61109;BME280;46995;55.740;37.402;2023-02-12T07:54:54;99251.25;;;-4.21;90.68
61109;BME280;46995;55.740;37.402;2023-02-12T07:57:19;99270.69;;;-4.11;90.87
61109;BME280;46995;55.740;37.402;2023-02-12T07:59:45;99296.19;;;-4.02;91.02
61109;BME280;46995;55.740;37.402;2023-02-12T08:02:11;99268.06;;;-4.10;91.12
61109;BME280;46995;55.740;37.402;2023-02-12T08:04:37;99283.97;;;-3.97;91.79
61109;BME280;46995;55.740;37.402;2023-02-12T08:07:03;99286.28;;;-3.88;91.51
61109;BME280;46995;55.740;37.402;2023-02-12T08:09:28;99281.22;;;-3.91;90.54
61109;BME280;46995;55.740;37.402;2023-02-12T08:11:57;99306.31;;;-3.96;90.87
61109;BME280;46995;55.740;37.402;2023-02-12T08:14:24;99303.22;;;-4.07;90.82
61109;BME280;46995;55.740;37.402;2023-02-12T08:16:50;99297.34;;;-4.12;90.00
61109;BME280;46995;55.740;37.402;2023-02-12T08:19:16;99303.13;;;-4.32;89.32
61109;BME280;46995;55.740;37.402;2023-02-12T08:21:42;99331.00;;;-4.17;90.12
61109;BME280;46995;55.740;37.402;2023-02-12T08:24:09;99317.47;;;-4.23;89.97
61109;BME280;46995;55.740;37.402;2023-02-12T08:26:36;99330.63;;;-4.03;89.64
61109;BME280;46995;55.740;37.402;2023-02-12T08:29:17;99351.94;;;-3.98;89.66
61109;BME280;46995;55.740;37.402;2023-02-12T08:31:45;99323.94;;;-4.10;89.88
61109;BME280;46995;55.740;37.402;2023-02-12T08:34:20;99352.91;;;-4.02;90.10
61109;BME280;46995;55.740;37.402;2023-02-12T08:36:48;99361.41;;;-3.99;89.62
61109;BME280;46995;55.740;37.402;2023-02-12T08:39:14;99360.59;;;-4.01;90.01
61109;BME280;46995;55.740;37.402;2023-02-12T08:41:41;99359.69;;;-3.98;90.48
61109;BME280;46995;55.740;37.402;2023-02-12T08:44:07;99378.63;;;-3.99;89.78
61109;BME280;46995;55.740;37.402;2023-02-12T08:46:35;99378.63;;;-3.99;90.40
61109;BME280;46995;55.740;37.402;2023-02-12T08:49:12;99369.31;;;-4.05;90.82
61109;BME280;46995;55.740;37.402;2023-02-12T08:51:49;99344.56;;;-4.10;90.01
61109;BME280;46995;55.740;37.402;2023-02-12T08:54:18;99364.56;;;-3.89;89.51
61109;BME280;46995;55.740;37.402;2023-02-12T08:56:45;99344.44;;;-4.06;89.90
61109;BME280;46995;55.740;37.402;2023-02-12T09:02:17;99387.53;;;-3.81;89.58
61109;BME280;46995;55.740;37.402;2023-02-12T09:04:42;99368.97;;;-3.93;89.35
61109;BME280;46995;55.740;37.402;2023-02-12T09:07:08;99350.19;;;-3.98;89.52
61109;BME280;46995;55.740;37.402;2023-02-12T09:09:34;99372.88;;;-3.81;90.04
61109;BME280;46995;55.740;37.402;2023-02-12T09:12:00;99377.97;;;-3.78;89.41
61109;BME280;46995;55.740;37.402;2023-02-12T09:14:25;99376.34;;;-3.82;88.64
61109;BME280;46995;55.740;37.402;2023-02-12T09:16:54;99400.31;;;-3.77;88.90
61109;BME280;46995;55.740;37.402;2023-02-12T09:19:21;99394.09;;;-3.71;89.64
61109;BME280;46995;55.740;37.402;2023-02-12T09:21:54;99399.84;;;-3.62;89.76
61109;BME280;46995;55.740;37.402;2023-02-12T09:24:23;99409.84;;;-3.53;89.50
61109;BME280;46995;55.740;37.402;2023-02-12T09:26:49;99376.31;;;-3.53;89.48
61109;BME280;46995;55.740;37.402;2023-02-12T09:29:16;99378.59;;;-3.44;89.37
61109;BME280;46995;55.740;37.402;2023-02-12T09:31:42;99392.84;;;-3.32;89.48
61109;BME280;46995;55.740;37.402;2023-02-12T09:34:08;99396.84;;;-3.23;89.21
61109;BME280;46995;55.740;37.402;2023-02-12T09:36:34;99394.59;;;-3.32;88.82
61109;BME280;46995;55.740;37.402;2023-02-12T09:39:03;99367.25;;;-3.39;89.20
61109;BME280;46995;55.740;37.402;2023-02-12T09:47:02;99411.56;;;-3.52;87.01
61109;BME280;46995;55.740;37.402;2023-02-12T09:52:29;99416.50;;;-3.72;87.17
61109;BME280;46995;55.740;37.402;2023-02-12T09:54:55;99406.56;;;-3.86;87.76
61109;BME280;46995;55.740;37.402;2023-02-12T09:57:30;99416.03;;;-3.86;87.66
61109;BME280;46995;55.740;37.402;2023-02-12T10:00:42;99405.13;;;-3.94;86.73
61109;BME280;46995;55.740;37.402;2023-02-12T10:03:03;99420.16;;;-3.80;87.65
61109;BME280;46995;55.740;37.402;2023-02-12T10:06:00;99432.84;;;-3.73;87.44
61109;BME280;46995;55.740;37.402;2023-02-12T10:17:07;99417.75;;;-3.57;87.87
61109;BME280;46995;55.740;37.402;2023-02-12T10:22:42;99458.97;;;-3.28;87.20
61109;BME280;46995;55.740;37.402;2023-02-12T10:25:27;99448.66;;;-3.28;86.91
61109;BME280;46995;55.740;37.402;2023-02-12T10:27:56;99472.53;;;-3.21;87.21
61109;BME280;46995;55.740;37.402;2023-02-12T10:33:06;99476.22;;;-3.02;88.90
61109;BME280;46995;55.740;37.402;2023-02-12T10:35:43;99482.63;;;-2.87;88.29
61109;BME280;46995;55.740;37.402;2023-02-12T10:38:25;99475.88;;;-2.91;86.36
61109;BME280;46995;55.740;37.402;2023-02-12T10:40:53;99486.63;;;-3.04;86.84
61109;BME280;46995;55.740;37.402;2023-02-12T10:43:23;99490.59;;;-3.20;86.26
61109;BME280;46995;55.740;37.402;2023-02-12T10:45:49;99474.72;;;-3.35;86.60
61109;BME280;46995;55.740;37.402;2023-02-12T10:48:34;99482.63;;;-3.14;87.35
61109;BME280;46995;55.740;37.402;2023-02-12T10:53:38;99504.56;;;-2.73;87.08
61109;BME280;46995;55.740;37.402;2023-02-12T10:56:16;99492.25;;;-2.66;87.55
61109;BME280;46995;55.740;37.402;2023-02-12T11:01:35;99502.09;;;-2.51;87.05
61109;BME280;46995;55.740;37.402;2023-02-12T11:04:27;99496.66;;;-2.43;86.99
61109;BME280;46995;55.740;37.402;2023-02-12T11:07:06;99505.78;;;-2.33;86.78
61109;BME280;46995;55.740;37.402;2023-02-12T11:09:44;99525.75;;;-2.37;84.17
61109;BME280;46995;55.740;37.402;2023-02-12T11:15:12;99533.72;;;-2.43;84.96
61109;BME280;46995;55.740;37.402;2023-02-12T11:17:41;99537.22;;;-2.45;86.12
61109;BME280;46995;55.740;37.402;2023-02-12T11:23:01;99544.28;;;-2.50;85.49
61109;BME280;46995;55.740;37.402;2023-02-12T11:25:30;99542.03;;;-2.60;86.08
61109;BME280;46995;55.740;37.402;2023-02-12T11:28:17;99545.06;;;-2.73;84.95
61109;BME280;46995;55.740;37.402;2023-02-12T11:31:17;99556.59;;;-2.57;86.36
61109;BME280;46995;55.740;37.402;2023-02-12T11:33:37;99565.19;;;-2.57;86.82
61109;BME280;46995;55.740;37.402;2023-02-12T11:36:14;99560.50;;;-2.72;85.60
61109;BME280;46995;55.740;37.402;2023-02-12T11:38:50;99571.44;;;-2.90;85.87
61109;BME280;46995;55.740;37.402;2023-02-12T11:44:09;99549.66;;;-3.09;86.21
61109;BME280;46995;55.740;37.402;2023-02-12T11:46:37;99566.63;;;-3.02;85.58
61109;BME280;46995;55.740;37.402;2023-02-12T11:49:04;99568.63;;;-3.10;86.31
61109;BME280;46995;55.740;37.402;2023-02-12T11:51:35;99593.28;;;-3.00;86.05
61109;BME280;46995;55.740;37.402;2023-02-12T11:54:04;99606.72;;;-2.89;86.83
61109;BME280;46995;55.740;37.402;2023-02-12T11:56:42;99605.47;;;-3.05;83.58
61109;BME280;46995;55.740;37.402;2023-02-12T11:59:32;99605.41;;;-3.31;84.29
61109;BME280;46995;55.740;37.402;2023-02-12T12:02:04;99617.94;;;-3.49;83.07
61109;BME280;46995;55.740;37.402;2023-02-12T12:04:34;99598.59;;;-3.65;85.90
61109;BME280;46995;55.740;37.402;2023-02-12T12:07:10;99646.47;;;-3.55;85.63
61109;BME280;46995;55.740;37.402;2023-02-12T12:17:58;99639.50;;;-3.20;86.51
61109;BME280;46995;55.740;37.402;2023-02-12T12:20:51;99649.47;;;-3.08;85.48
61109;BME280;46995;55.740;37.402;2023-02-12T12:23:24;99631.44;;;-3.10;85.25
61109;BME280;46995;55.740;37.402;2023-02-12T12:26:09;99656.53;;;-2.85;85.81
61109;BME280;46995;55.740;37.402;2023-02-12T12:28:51;99664.13;;;-2.79;83.67
61109;BME280;46995;55.740;37.402;2023-02-12T12:31:42;99675.75;;;-2.94;82.35
61109;BME280;46995;55.740;37.402;2023-02-12T12:34:14;99678.84;;;-3.12;83.85
61109;BME280;46995;55.740;37.402;2023-02-12T12:36:48;99682.59;;;-3.22;84.42
61109;BME280;46995;55.740;37.402;2023-02-12T12:45:34;99690.25;;;-3.82;83.05
61109;BME280;46995;55.740;37.402;2023-02-12T12:48:15;99705.59;;;-3.78;83.60
61109;BME280;46995;55.740;37.402;2023-02-12T12:53:58;99693.22;;;-3.65;84.75
61109;BME280;46995;55.740;37.402;2023-02-12T13:07:40;99722.41;;;-3.62;82.37
61109;BME280;46995;55.740;37.402;2023-02-12T13:15:28;99737.66;;;-3.54;84.10
61109;BME280;46995;55.740;37.402;2023-02-12T13:24:01;99738.66;;;-3.60;83.69
61109;BME280;46995;55.740;37.402;2023-02-12T13:29:17;99738.28;;;-3.78;83.05
61109;BME280;46995;55.740;37.402;2023-02-12T13:31:48;99738.44;;;-3.85;82.35
61109;BME280;46995;55.740;37.402;2023-02-12T13:34:16;99728.16;;;-3.86;83.58
61109;BME280;46995;55.740;37.402;2023-02-12T13:36:44;99729.03;;;-3.87;83.53
61109;BME280;46995;55.740;37.402;2023-02-12T13:39:27;99747.66;;;-3.74;81.67
61109;BME280;46995;55.740;37.402;2023-02-12T13:44:44;99738.81;;;-4.00;82.59
61109;BME280;46995;55.740;37.402;2023-02-12T13:52:47;99764.94;;;-3.78;82.63
61109;BME280;46995;55.740;37.402;2023-02-12T13:55:24;99758.09;;;-3.79;82.33
61109;BME280;46995;55.740;37.402;2023-02-12T14:03:29;99745.59;;;-3.96;82.55
61109;BME280;46995;55.740;37.402;2023-02-12T14:06:21;99716.22;;;-4.25;79.58
61109;BME280;46995;55.740;37.402;2023-02-12T14:08:52;99743.53;;;-4.18;80.85
61109;BME280;46995;55.740;37.402;2023-02-12T14:11:32;99759.75;;;-4.13;82.67
61109;BME280;46995;55.740;37.402;2023-02-12T14:14:00;99757.50;;;-4.27;81.26
61109;BME280;46995;55.740;37.402;2023-02-12T14:21:59;99794.47;;;-4.28;81.63
61109;BME280;46995;55.740;37.402;2023-02-12T14:24:52;99792.06;;;-4.36;80.50
61109;BME280;46995;55.740;37.402;2023-02-12T14:27:28;99788.84;;;-4.45;81.34
61109;BME280;46995;55.740;37.402;2023-02-12T14:35:33;99820.66;;;-4.46;81.50
61109;BME280;46995;55.740;37.402;2023-02-12T14:46:49;99823.00;;;-4.77;80.98
61109;BME280;46995;55.740;37.402;2023-02-12T14:49:46;99856.31;;;-4.68;80.73
61109;BME280;46995;55.740;37.402;2023-02-12T14:52:14;99854.69;;;-4.72;81.37
61109;BME280;46995;55.740;37.402;2023-02-12T14:54:51;99859.88;;;-4.75;80.95
61109;BME280;46995;55.740;37.402;2023-02-12T14:57:33;99832.78;;;-4.96;81.26
61109;BME280;46995;55.740;37.402;2023-02-12T15:00:24;99863.50;;;-4.85;81.82
61109;BME280;46995;55.740;37.402;2023-02-12T15:03:00;99873.75;;;-4.82;82.38
61109;BME280;46995;55.740;37.402;2023-02-12T15:05:40;99872.06;;;-4.83;81.32
61109;BME280;46995;55.740;37.402;2023-02-12T15:11:00;99868.75;;;-4.91;80.85
61109;BME280;46995;55.740;37.402;2023-02-12T15:13:35;99857.00;;;-5.04;81.10
61109;BME280;46995;55.740;37.402;2023-02-12T15:16:30;99889.31;;;-4.88;81.94
61109;BME280;46995;55.740;37.402;2023-02-12T15:19:06;99885.16;;;-4.97;82.15
61109;BME280;46995;55.740;37.402;2023-02-12T15:21:39;99885.22;;;-4.98;82.27
61109;BME280;46995;55.740;37.402;2023-02-12T15:24:19;99854.69;;;-5.20;82.07
61109;BME280;46995;55.740;37.402;2023-02-12T15:26:57;99869.19;;;-5.16;81.74
61109;BME280;46995;55.740;37.402;2023-02-12T15:29:41;99887.97;;;-5.09;80.66
61109;BME280;46995;55.740;37.402;2023-02-12T15:32:15;99901.53;;;-4.99;81.95
61109;BME280;46995;55.740;37.402;2023-02-12T15:34:47;99889.72;;;-5.13;80.52
61109;BME280;46995;55.740;37.402;2023-02-12T15:37:28;99894.75;;;-5.05;81.04
61109;BME280;46995;55.740;37.402;2023-02-12T15:39:59;99888.16;;;-5.20;81.24
61109;BME280;46995;55.740;37.402;2023-02-12T15:42:32;99898.28;;;-5.09;80.85
61109;BME280;46995;55.740;37.402;2023-02-12T15:47:43;99859.09;;;-5.28;81.94
61109;BME280;46995;55.740;37.402;2023-02-12T15:52:43;99908.59;;;-5.12;80.64
61109;BME280;46995;55.740;37.402;2023-02-12T15:55:19;99897.63;;;-5.22;80.47
61109;BME280;46995;55.740;37.402;2023-02-12T15:57:51;99890.88;;;-5.29;81.82